Time;durP1;ratioP1;P1;durP2;ratioP2;P2;SDS_P1;SDS_P2;PMS_P1;PMS_P2;Temp;Humidity;BMP_temperature;BMP_pressure;BME280_temperature;BME280_humidity;BME280_pressure;Samples;Min_cycle;Max_cycle;Signal;HPM_P1;HPM_P2
2023/03/10 00:00:34;;;;;;;15.45;11.45;;;;;;;8.54;90.51;98502.19;3608995;39;20051;-63
2023/03/10 00:03:00;;;;;;;14.55;11.65;;;;;;;8.50;90.70;98495.44;3608352;39;20404;-64
2023/03/10 00:05:26;;;;;;;15.95;12.55;;;;;;;8.44;90.90;98498.66;3599053;39;20687;-63
2023/03/10 00:07:51;;;;;;;14.95;11.63;;;;;;;8.43;91.67;98507.66;3608824;39;20088;-63
2023/03/10 00:10:18;;;;;;;15.70;11.57;;;;;;;8.16;91.50;98460.13;3613064;39;20054;-64
2023/03/10 00:12:43;;;;;;;13.50;11.23;;;;;;;8.41;92.17;98506.13;3609635;39;20300;-64
2023/03/10 00:15:11;;;;;;;14.68;11.43;;;;;;;8.40;91.82;98505.25;3605101;39;20063;-64
2023/03/10 00:17:37;;;;;;;12.60;10.70;;;;;;;8.34;91.48;98500.41;3607138;39;20110;-64
2023/03/10 00:20:10;;;;;;;12.43;10.60;;;;;;;8.24;91.24;98484.34;3609319;39;20131;-63
2023/03/10 00:22:40;;;;;;;;;;;;;;;8.28;91.47;98484.94;3606974;39;20043;-63
2023/03/10 00:25:09;;;;;;;13.23;10.48;;;;;;;8.29;91.63;98486.63;3604920;39;19931;-64
2023/03/10 00:27:34;;;;;;;12.93;11.30;;;;;;;8.28;92.08;98490.28;3611602;39;20057;-63
2023/03/10 00:30:01;;;;;;;11.43;10.23;;;;;;;8.27;92.06;98485.91;3598173;39;20106;-63
2023/03/10 00:32:26;;;;;;;14.80;11.10;;;;;;;8.17;91.01;98471.66;3613466;39;20054;-64
2023/03/10 00:34:52;;;;;;;14.10;11.00;;;;;;;8.20;91.31;98482.94;3606658;39;20051;-64
2023/03/10 00:37:18;;;;;;;16.45;10.90;;;;;;;8.17;91.02;98495.75;3608232;39;20377;-64
2023/03/10 00:39:49;;;;;;;11.20;9.75;;;;;;;8.08;91.24;98479.50;3608882;39;20047;-64
2023/03/10 00:42:15;;;;;;;12.60;9.75;;;;;;;8.09;90.79;98491.94;3608700;39;20046;-64
2023/03/10 00:44:40;;;;;;;13.70;9.60;;;;;;;8.04;90.81;98498.66;3610185;39;20050;-64
2023/03/10 00:47:06;;;;;;;12.13;10.23;;;;;;;8.02;91.79;98496.13;3613171;39;20397;-64
2023/03/10 00:49:32;;;;;;;11.40;9.55;;;;;;;8.01;91.28;98491.75;3601080;39;20057;-64
2023/03/10 00:51:57;;;;;;;12.32;9.80;;;;;;;8.01;91.68;98490.91;3600300;39;20070;-65
2023/03/10 00:54:23;;;;;;;11.20;9.93;;;;;;;8.01;91.87;98494.44;3607185;39;20051;-65
2023/03/10 00:56:49;;;;;;;11.70;10.38;;;;;;;8.01;91.41;98491.75;3608547;39;20077;-65
2023/03/10 00:59:14;;;;;;;11.85;10.18;;;;;;;8.03;92.28;98495.16;3610267;39;20390;-65
2023/03/10 01:01:41;;;;;;;15.05;10.43;;;;;;;8.09;93.55;98496.44;3611879;39;20043;-66
2023/03/10 01:04:13;;;;;;;11.70;10.35;;;;;;;8.16;93.49;98504.78;3611015;39;20049;-66
2023/03/10 01:06:39;;;;;;;11.13;9.25;;;;;;;8.25;94.67;98490.56;3608182;39;20136;-66
2023/03/10 01:09:06;;;;;;;12.30;8.75;;;;;;;8.41;95.86;98493.59;3609242;39;20095;-66
2023/03/10 01:11:33;;;;;;;13.90;9.00;;;;;;;8.56;96.62;98484.16;3607782;39;20054;-67
2023/03/10 01:14:03;;;;;;;10.68;8.43;;;;;;;8.70;96.55;98482.91;3607151;39;20123;-66
2023/03/10 01:16:29;;;;;;;10.43;7.18;;;;;;;8.85;97.42;98486.00;3610673;39;20051;-67
2023/03/10 01:18:56;;;;;;;11.77;8.20;;;;;;;8.98;97.42;98477.66;3611776;39;20762;-67
2023/03/10 01:21:26;;;;;;;8.88;6.65;;;;;;;9.04;97.99;98467.22;3607994;39;20055;-67
2023/03/10 01:23:53;;;;;;;9.98;7.25;;;;;;;9.23;97.69;98477.06;3605200;39;20073;-67
2023/03/10 01:26:18;;;;;;;9.05;6.88;;;;;;;9.34;98.15;98465.31;3609151;39;20051;-67
2023/03/10 01:28:45;;;;;;;10.40;7.43;;;;;;;9.29;98.35;98440.78;3610759;39;20058;-67
2023/03/10 01:31:11;;;;;;;8.35;7.10;;;;;;;9.58;97.66;98462.16;3610266;39;20124;-68
2023/03/10 01:33:39;;;;;;;8.05;6.95;;;;;;;9.66;97.49;98461.41;3610651;39;20354;-67
2023/03/10 01:36:19;;;;;;;10.10;7.30;;;;;;;9.73;97.42;98457.97;3613434;39;20062;-68
2023/03/10 01:38:46;;;;;;;8.13;6.88;;;;;;;9.75;97.17;98452.47;3607094;39;20323;-67
2023/03/10 01:41:12;;;;;;;8.43;7.20;;;;;;;9.84;97.00;98465.00;3611916;39;20051;-67
2023/03/10 01:43:41;;;;;;;11.18;7.05;;;;;;;9.88;96.99;98458.34;3616238;39;20069;-68
2023/03/10 01:46:50;;;;;;;8.55;7.47;;;;;;;9.95;96.36;98456.75;3615709;39;20397;-68
2023/03/10 01:49:40;;;;;;;8.18;6.93;;;;;;;9.99;96.50;98451.94;3614013;39;20096;-68
2023/03/10 01:52:23;;;;;;;11.05;7.28;;;;;;;9.97;95.95;98435.13;3609086;39;20062;-68
2023/03/10 01:55:14;;;;;;;8.18;7.30;;;;;;;10.03;95.83;98441.75;3608799;39;20389;-68
2023/03/10 01:57:49;;;;;;;9.90;7.78;;;;;;;10.03;95.35;98444.44;3611381;39;20046;-69
2023/03/10 02:00:16;;;;;;;8.55;7.22;;;;;;;10.05;95.19;98439.75;3613553;39;20050;-68
2023/03/10 02:03:11;;;;;;;9.85;7.18;;;;;;;10.08;96.12;98442.97;3614576;39;20139;-69
2023/03/10 02:05:44;;;;;;;7.78;6.78;;;;;;;10.09;95.31;98442.00;3608437;39;20057;-69
2023/03/10 02:08:11;;;;;;;9.20;7.85;;;;;;;10.09;95.86;98441.16;3611269;39;20417;-69
2023/03/10 02:10:38;;;;;;;9.50;7.32;;;;;;;10.15;95.05;98453.97;3608532;39;20057;-69
2023/03/10 02:13:04;;;;;;;7.90;6.80;;;;;;;10.14;95.49;98445.06;3610671;39;20124;-69
2023/03/10 02:15:32;;;;;;;9.07;6.93;;;;;;;10.02;95.50;98410.50;3613424;39;20320;-69
2023/03/10 02:18:02;;;;;;;8.98;6.82;;;;;;;10.21;95.39;98439.91;3614080;39;20074;-69
2023/03/10 02:20:53;;;;;;;8.32;7.53;;;;;;;10.23;94.44;98440.63;3611267;39;20382;-70
2023/03/10 02:23:48;;;;;;;8.35;6.88;;;;;;;9.91;94.88;98371.34;3608040;39;20051;-70
2023/03/10 02:26:42;;;;;;;8.25;6.35;;;;;;;10.20;93.92;98425.66;3605393;39;20051;-70
2023/03/10 02:29:22;;;;;;;;;;;;;;;10.19;94.14;98417.78;3610916;39;20378;-70
2023/03/10 02:31:51;;;;;;;7.30;6.60;;;;;;;10.19;94.68;98415.09;3609783;39;19984;-71
2023/03/10 02:34:17;;;;;;;7.82;6.63;;;;;;;10.18;94.66;98410.69;3614370;39;20116;-70
2023/03/10 02:36:43;;;;;;;8.32;6.50;;;;;;;10.07;93.99;98397.50;3613738;39;20116;-70
2023/03/10 02:39:08;;;;;;;9.48;6.70;;;;;;;10.16;95.00;98407.34;3618873;39;20104;-70
2023/03/10 02:41:38;;;;;;;7.28;6.28;;;;;;;10.16;94.94;98404.66;3612612;39;20055;-70
2023/03/10 02:44:13;;;;;;;8.73;6.22;;;;;;;10.14;94.25;98402.09;3610005;39;20059;-70
2023/03/10 02:46:39;;;;;;;7.70;6.38;;;;;;;10.13;93.96;98399.59;3611893;39;20062;-70
2023/03/10 02:49:11;;;;;;;10.27;6.65;;;;;;;10.09;93.63;98392.84;3613174;39;20054;-70
2023/03/10 02:51:46;;;;;;;8.23;6.47;;;;;;;10.06;93.81;98395.81;3613263;39;20066;-72
2023/03/10 02:54:14;;;;;;;9.23;6.93;;;;;;;10.02;93.62;98389.88;3616486;39;20055;-72
2023/03/10 02:56:41;;;;;;;8.88;7.32;;;;;;;9.74;94.13;98343.50;3609425;39;20055;-72
2023/03/10 02:59:08;;;;;;;16.40;7.05;;;;;;;9.98;93.60;98383.97;3610778;39;20120;-71
2023/03/10 03:01:34;;;;;;;9.48;6.57;;;;;;;9.68;93.03;98341.41;3611593;39;20050;-71
2023/03/10 03:04:01;;;;;;;7.75;6.70;;;;;;;9.88;93.76;98375.16;3611794;39;20046;-72
2023/03/10 03:06:28;;;;;;;7.88;6.70;;;;;;;9.84;93.67;98375.63;3613257;39;20136;-72
2023/03/10 03:08:54;;;;;;;7.82;6.20;;;;;;;9.78;93.81;98379.75;3613034;39;20050;-72
2023/03/10 03:11:20;;;;;;;9.13;6.85;;;;;;;9.75;93.86;98380.03;3609444;39;20142;-72
2023/03/10 03:13:46;;;;;;;9.82;6.40;;;;;;;9.74;94.41;98368.47;3612360;39;20335;-74
2023/03/10 03:16:12;;;;;;;9.27;5.95;;;;;;;9.75;95.02;98361.25;3611275;39;20053;-72
2023/03/10 03:18:38;;;;;;;8.50;5.47;;;;;;;9.73;94.25;98368.59;3612588;39;20373;-72
2023/03/10 03:21:11;;;;;;;10.85;6.40;;;;;;;9.74;95.21;98373.84;3611401;39;20059;-74
2023/03/10 03:23:38;;;;;;;10.30;5.32;;;;;;;9.74;95.21;98362.25;3613246;39;20311;-72
2023/03/10 03:26:19;;;;;;;7.25;5.65;;;;;;;9.77;94.77;98356.59;3616689;39;20046;-72
2023/03/10 03:28:45;;;;;;;8.13;5.72;;;;;;;9.73;95.18;98358.72;3609778;39;20073;-72
2023/03/10 03:31:18;;;;;;;9.40;5.03;;;;;;;9.77;95.26;98357.44;3608799;39;20381;-72
2023/03/10 03:33:44;;;;;;;9.70;5.05;;;;;;;9.81;95.28;98371.41;3611075;39;20115;-73
2023/03/10 03:36:10;;;;;;;7.78;4.63;;;;;;;9.83;95.78;98366.72;3611718;39;20051;-72
2023/03/10 03:38:36;;;;;;;10.10;4.78;;;;;;;9.83;95.63;98358.69;3611995;39;20342;-71
2023/03/10 03:41:01;;;;;;;8.65;4.88;;;;;;;9.87;95.79;98361.91;3615140;39;20055;-72
2023/03/10 03:43:28;;;;;;;6.53;4.40;;;;;;;9.88;95.75;98364.41;3611531;39;20054;-72
2023/03/10 03:45:54;;;;;;;7.53;4.25;;;;;;;9.80;94.92;98353.63;3611987;39;20055;-72
2023/03/10 03:48:20;;;;;;;8.60;4.03;;;;;;;9.90;95.22;98367.81;3610339;39;20564;-72
2023/03/10 03:50:47;;;;;;;7.55;4.05;;;;;;;9.94;96.03;98357.63;3611273;39;20046;-70
2023/03/10 03:53:13;;;;;;;10.25;4.50;;;;;;;9.88;95.50;98348.31;3600434;39;20055;-71
2023/03/10 03:55:40;;;;;;;7.35;3.90;;;;;;;9.97;95.12;98351.94;3611468;39;20063;-71
2023/03/10 03:58:05;;;;;;;10.73;4.03;;;;;;;9.81;95.36;98328.47;3610354;39;20408;-70
2023/03/10 04:00:33;;;;;;;9.93;4.15;;;;;;;10.00;95.72;98352.47;3614020;39;20062;-70
2023/03/10 04:02:59;;;;;;;10.27;3.80;;;;;;;10.00;94.77;98357.84;3612760;39;20051;-70
2023/03/10 04:05:25;;;;;;;9.20;3.80;;;;;;;9.99;95.36;98349.97;3617113;39;20094;-70
2023/03/10 04:07:51;;;;;;;8.57;3.53;;;;;;;10.00;94.98;98347.13;3614054;39;20050;-70
2023/03/10 04:10:20;;;;;;;8.30;3.20;;;;;;;10.00;94.83;98341.75;3613071;39;20047;-70
2023/03/10 04:12:46;;;;;;;4.18;2.70;;;;;;;10.05;95.25;98345.81;3612829;39;20120;-70
2023/03/10 04:15:12;;;;;;;7.53;3.08;;;;;;;10.06;94.77;98347.50;3616811;39;20046;-71
2023/03/10 04:17:39;;;;;;;8.20;3.17;;;;;;;10.00;95.22;98331.00;3617550;39;20094;-71
2023/03/10 04:20:07;;;;;;;8.13;2.85;;;;;;;10.09;94.75;98339.16;3612428;39;20039;-70
2023/03/10 04:22:34;;;;;;;8.30;3.00;;;;;;;10.09;94.54;98344.53;3610075;39;20063;-69
2023/03/10 04:25:01;;;;;;;10.70;3.10;;;;;;;10.08;94.63;98343.66;3607944;39;20063;-70
2023/03/10 04:27:27;;;;;;;6.65;2.67;;;;;;;10.08;94.72;98340.97;3611186;39;20061;-69
2023/03/10 04:29:52;;;;;;;11.73;2.65;;;;;;;10.07;93.78;98346.50;3615235;39;20046;-69
2023/03/10 04:32:18;;;;;;;10.75;2.67;;;;;;;9.82;93.82;98316.72;3609741;39;20058;-70
2023/03/10 04:34:43;;;;;;;9.10;2.72;;;;;;;10.00;93.94;98347.13;3613152;39;20054;-70
2023/03/10 04:37:09;;;;;;;10.73;2.65;;;;;;;9.98;93.61;98342.88;3600357;39;20042;-70
2023/03/10 04:39:36;;;;;;;8.43;2.72;;;;;;;9.93;93.21;98338.00;3610761;39;20069;-69
2023/03/10 04:42:03;;;;;;;8.63;2.80;;;;;;;9.23;92.64;98245.72;3610623;39;20063;-69
2023/03/10 04:44:28;;;;;;;7.45;2.50;;;;;;;9.81;93.24;98333.00;3610489;39;20135;-69
2023/03/10 04:46:54;;;;;;;8.18;2.70;;;;;;;9.79;94.15;98333.13;3609229;39;20055;-69
2023/03/10 04:49:20;;;;;;;6.30;2.45;;;;;;;9.78;94.48;98326.09;3610326;39;21073;-69
2023/03/10 04:51:45;;;;;;;10.55;2.85;;;;;;;9.79;94.58;98322.41;3614380;39;20063;-69
2023/03/10 04:54:11;;;;;;;9.32;2.42;;;;;;;9.78;94.07;98323.41;3607754;39;20095;-69
2023/03/10 04:56:37;;;;;;;8.25;2.40;;;;;;;9.77;93.80;98327.09;3613560;39;20059;-69
2023/03/10 04:59:03;;;;;;;10.75;2.47;;;;;;;9.75;93.14;98326.38;3609278;39;20131;-69
2023/03/10 05:01:31;;;;;;;9.30;2.65;;;;;;;9.76;93.55;98328.91;3610217;39;20051;-69
2023/03/10 05:03:59;;;;;;;11.35;2.88;;;;;;;9.78;94.03;98323.41;3611340;39;21637;-69
2023/03/10 05:06:25;;;;;;;11.35;3.13;;;;;;;9.77;93.71;98319.03;3614100;39;20102;-69
2023/03/10 05:08:51;;;;;;;8.27;3.10;;;;;;;9.76;93.66;98326.22;3615210;39;20403;-69
2023/03/10 05:11:17;;;;;;;10.88;3.30;;;;;;;9.73;93.23;98323.84;3610977;39;20059;-69
2023/03/10 05:13:43;;;;;;;12.25;3.30;;;;;;;9.65;93.70;98302.31;3612577;39;20127;-69
2023/03/10 05:16:19;;;;;;;13.98;3.90;;;;;;;9.69;93.17;98314.41;3602362;39;20058;-68
2023/03/10 05:18:46;;;;;;;12.98;3.38;;;;;;;9.74;93.92;98313.97;3611482;39;20136;-68
2023/03/10 05:21:11;;;;;;;10.90;3.55;;;;;;;9.61;93.12;98300.94;3612967;39;20082;-68
2023/03/10 05:23:37;;;;;;;11.23;3.40;;;;;;;9.71;93.28;98322.31;3613922;39;20421;-70
2023/03/10 05:26:07;;;;;;;11.23;3.88;;;;;;;9.47;93.20;98275.44;3608028;39;20051;-69
2023/03/10 05:28:33;;;;;;;11.75;3.08;;;;;;;9.68;93.35;98314.59;3611388;39;20124;-69
2023/03/10 05:30:59;;;;;;;13.40;3.63;;;;;;;9.68;93.60;98323.47;3613910;39;20053;-68
2023/03/10 05:33:24;;;;;;;13.57;3.15;;;;;;;9.66;93.67;98322.75;3611707;39;20079;-68
2023/03/10 05:35:50;;;;;;;13.95;3.47;;;;;;;9.67;92.89;98328.97;3610183;39;20062;-68
2023/03/10 05:38:16;;;;;;;15.45;4.50;;;;;;;9.67;93.28;98328.97;3611537;39;20046;-68
2023/03/10 05:40:43;;;;;;;12.55;4.22;;;;;;;9.68;93.08;98328.00;3615565;39;20058;-68
2023/03/10 05:43:10;;;;;;;17.33;4.90;;;;;;;9.70;93.28;98324.13;3614707;39;20043;-68
2023/03/10 05:45:36;;;;;;;20.25;5.65;;;;;;;9.73;93.61;98328.38;3611520;39;20325;-70
2023/03/10 05:48:02;;;;;;;15.85;4.43;;;;;;;9.75;93.49;98321.03;3613653;39;20066;-68
2023/03/10 05:50:28;;;;;;;18.20;4.72;;;;;;;9.75;93.90;98321.84;3612805;39;20055;-69
2023/03/10 05:52:54;;;;;;;16.70;4.88;;;;;;;9.78;93.45;98323.41;3616464;39;20062;-69
2023/03/10 05:55:20;;;;;;;11.85;4.38;;;;;;;9.79;93.85;98327.75;3612803;39;20136;-68
2023/03/10 05:57:47;;;;;;;13.82;4.85;;;;;;;9.80;93.88;98324.09;3612705;39;20050;-67
2023/03/10 06:00:15;;;;;;;17.65;5.38;;;;;;;9.82;93.38;98322.09;3610432;39;20099;-68
2023/03/10 06:02:41;;;;;;;14.77;4.97;;;;;;;9.83;92.82;98329.16;3609160;39;20131;-68
2023/03/10 06:05:12;;;;;;;12.68;4.60;;;;;;;9.81;93.02;98322.25;3613478;39;20093;-68
2023/03/10 06:07:39;;;;;;;11.32;4.22;;;;;;;9.83;92.30;98329.16;3610836;39;20055;-69
2023/03/10 06:10:06;;;;;;;14.18;4.38;;;;;;;9.81;92.67;98331.16;3614668;39;20062;-69
2023/03/10 06:12:32;;;;;;;12.88;4.53;;;;;;;9.78;91.65;98326.09;3607311;39;20055;-68
2023/03/10 06:14:58;;;;;;;17.75;4.68;;;;;;;9.77;91.43;98335.13;3611401;39;20065;-69
2023/03/10 06:17:23;;;;;;;11.45;4.30;;;;;;;9.75;91.64;98335.28;3611507;39;20067;-70
2023/03/10 06:19:51;;;;;;;10.35;3.78;;;;;;;9.73;92.09;98339.94;3615413;39;20051;-68
2023/03/10 06:22:17;;;;;;;14.10;3.95;;;;;;;9.71;92.90;98336.56;3613712;39;20100;-69
2023/03/10 06:24:44;;;;;;;12.93;4.20;;;;;;;9.76;92.68;98339.63;3618663;39;20056;-68
2023/03/10 06:27:10;;;;;;;13.00;3.92;;;;;;;9.75;93.27;98331.75;3612922;39;20047;-69
2023/03/10 06:29:36;;;;;;;11.70;3.45;;;;;;;9.75;92.73;98343.31;3610875;39;20095;-69
2023/03/10 06:32:02;;;;;;;14.40;3.88;;;;;;;9.76;93.49;98360.25;3611451;39;20050;-70
2023/03/10 06:34:28;;;;;;;15.32;4.15;;;;;;;9.78;93.34;98355.59;3612160;39;20066;-69
2023/03/10 06:36:54;;;;;;;13.45;4.47;;;;;;;9.79;93.98;98346.53;3612801;39;20054;-69
2023/03/10 06:39:20;;;;;;;11.95;3.70;;;;;;;9.79;93.49;98341.19;3609263;39;20066;-68
2023/03/10 06:41:46;;;;;;;11.30;3.28;;;;;;;9.81;94.19;98346.41;3602186;39;20087;-68
2023/03/10 06:44:17;;;;;;;13.75;3.85;;;;;;;9.81;94.18;98349.94;3615090;39;20062;-68
2023/03/10 06:46:44;;;;;;;12.70;4.20;;;;;;;9.82;94.38;98346.25;3601356;39;20052;-69
2023/03/10 06:49:10;;;;;;;9.35;3.92;;;;;;;9.83;94.31;98339.91;3610379;39;20071;-69
2023/03/10 06:51:35;;;;;;;11.88;4.18;;;;;;;9.81;94.48;98339.19;3609709;39;20128;-69
2023/03/10 06:54:01;;;;;;;11.82;4.25;;;;;;;9.83;93.61;98344.41;3611537;39;20050;-69
2023/03/10 06:56:26;;;;;;;13.02;4.43;;;;;;;9.81;93.62;98336.50;3609970;39;20305;-69
2023/03/10 06:58:52;;;;;;;13.30;4.28;;;;;;;9.85;94.48;98342.41;3611287;39;20062;-69
2023/03/10 07:01:28;;;;;;;13.25;4.45;;;;;;;9.90;94.31;98351.72;3611209;39;20089;-69
2023/03/10 07:03:55;;;;;;;12.40;3.75;;;;;;;9.94;94.53;98346.88;3613440;39;20054;-69
2023/03/10 07:06:21;;;;;;;11.32;3.83;;;;;;;9.98;94.40;98354.47;3614396;39;20069;-69
2023/03/10 07:08:47;;;;;;;15.02;4.05;;;;;;;10.01;93.79;98350.63;3610019;39;20123;-69
2023/03/10 07:11:14;;;;;;;14.60;4.25;;;;;;;10.04;93.78;98349.50;3610561;39;20046;-69
2023/03/10 07:13:39;;;;;;;10.98;3.72;;;;;;;10.06;93.91;98342.97;3609428;39;20081;-69
2023/03/10 07:16:06;;;;;;;11.70;3.33;;;;;;;10.11;94.29;98347.88;3613330;39;20293;-69
2023/03/10 07:18:31;;;;;;;12.90;3.47;;;;;;;10.18;94.37;98354.31;3610103;39;20080;-69
2023/03/10 07:20:57;;;;;;;10.73;3.53;;;;;;;10.23;94.48;98349.34;3610919;39;20046;-70
2023/03/10 07:23:24;;;;;;;14.55;6.45;;;;;;;10.32;93.88;98361.03;3609340;39;20098;-69
2023/03/10 07:25:53;;;;;;;17.23;5.43;;;;;;;10.35;93.30;98356.19;3600629;39;20055;-69
2023/03/10 07:28:19;;;;;;;12.65;5.50;;;;;;;10.39;93.74;98362.94;3608654;39;20055;-69
2023/03/10 07:30:45;;;;;;;16.52;4.97;;;;;;;10.43;93.65;98364.34;3611510;39;20060;-69
2023/03/10 07:33:10;;;;;;;12.48;5.18;;;;;;;10.57;93.38;98362.09;3612891;39;20402;-68
2023/03/10 07:35:37;;;;;;;14.82;4.20;;;;;;;10.71;93.04;98361.53;3613089;39;20058;-68
2023/03/10 07:38:03;;;;;;;14.30;3.72;;;;;;;10.84;92.05;98370.00;3609118;39;20766;-69
2023/03/10 07:40:29;;;;;;;11.05;3.13;;;;;;;10.95;91.20;98370.78;3610495;39;20079;-68
2023/03/10 07:42:55;;;;;;;8.93;2.80;;;;;;;11.02;90.12;98374.50;3610166;39;20071;-69
2023/03/10 07:45:22;;;;;;;14.55;2.85;;;;;;;10.74;89.76;98325.44;3608745;39;20707;-69
2023/03/10 07:47:50;;;;;;;12.68;2.55;;;;;;;11.14;89.73;98370.56;3611872;39;20046;-69
2023/03/10 07:50:16;;;;;;;8.60;1.95;;;;;;;11.18;89.18;98371.91;3607993;39;20058;-69
2023/03/10 07:52:42;;;;;;;7.40;2.17;;;;;;;11.34;89.19;98374.69;3614041;39;20123;-69
2023/03/10 07:55:08;;;;;;;6.35;2.00;;;;;;;11.47;87.55;98378.81;3606783;39;20047;-69
2023/03/10 07:57:34;;;;;;;10.68;2.53;;;;;;;11.53;86.58;98375.47;3599396;39;20078;-69
2023/03/10 08:00:00;;;;;;;9.05;2.45;;;;;;;11.52;85.84;98379.16;3609765;39;20057;-69
2023/03/10 08:02:25;;;;;;;7.00;1.83;;;;;;;11.49;85.05;98382.19;3608813;39;20069;-69
2023/03/10 08:04:51;;;;;;;9.52;2.22;;;;;;;11.47;85.10;98385.03;3613878;39;20050;-69
2023/03/10 08:07:17;;;;;;;6.93;2.38;;;;;;;11.45;84.89;98380.78;3609058;39;20405;-69
2023/03/10 08:09:50;;;;;;;9.65;2.40;;;;;;;11.47;85.34;98379.63;3608841;39;20281;-69
2023/03/10 08:12:19;;;;;;;10.48;2.40;;;;;;;11.31;85.90;98336.53;3608728;39;20119;-68
2023/03/10 08:14:46;;;;;;;11.18;2.63;;;;;;;11.54;85.18;98375.28;3610943;39;20124;-69
2023/03/10 08:17:12;;;;;;;9.52;2.28;;;;;;;11.58;85.00;98379.38;3603923;39;20059;-68
2023/03/10 08:19:38;;;;;;;13.50;1.98;;;;;;;11.68;84.93;98386.47;3609992;39;20118;-68
2023/03/10 08:22:04;;;;;;;7.82;2.47;;;;;;;11.94;85.06;98379.19;3606045;39;20132;-68
2023/03/10 08:24:30;;;;;;;9.73;2.25;;;;;;;12.22;83.64;98376.22;3608781;39;20301;-67
2023/03/10 08:26:56;;;;;;;10.40;2.58;;;;;;;12.34;82.23;98383.00;3607757;39;20042;-68
2023/03/10 08:29:22;;;;;;;10.90;2.83;;;;;;;12.43;81.02;98381.13;3607344;39;20066;-69
2023/03/10 08:31:48;;;;;;;11.60;2.80;;;;;;;12.37;80.19;98382.66;3607404;39;20062;-68
2023/03/10 08:34:15;;;;;;;7.43;2.17;;;;;;;12.37;79.88;98387.19;3595647;39;20144;-68
2023/03/10 08:36:42;;;;;;;10.70;2.47;;;;;;;12.38;80.49;98376.25;3605491;39;20213;-68
2023/03/10 08:39:11;;;;;;;8.15;1.92;;;;;;;12.37;79.40;98389.88;3608272;39;20100;-68
2023/03/10 08:41:44;;;;;;;8.85;2.25;;;;;;;12.36;79.28;98378.25;3611283;39;20058;-68
2023/03/10 08:44:14;;;;;;;10.77;2.63;;;;;;;12.38;79.19;98386.19;3610020;39;20059;-68
2023/03/10 08:46:42;;;;;;;8.80;2.70;;;;;;;12.40;78.54;98381.47;3609357;39;20055;-68
2023/03/10 08:49:08;;;;;;;7.22;2.13;;;;;;;12.49;78.97;98383.16;3608146;39;20059;-68
2023/03/10 08:51:35;;;;;;;6.90;1.85;;;;;;;12.65;79.32;98380.47;3611630;39;20043;-68
2023/03/10 08:54:01;;;;;;;10.13;2.20;;;;;;;12.83;79.18;98368.69;3606839;39;20067;-68
2023/03/10 08:56:28;;;;;;;7.68;2.58;;;;;;;13.02;76.81;98381.81;3605651;39;20120;-68
2023/03/10 08:58:57;;;;;;;9.43;2.42;;;;;;;13.02;75.96;98387.19;3607972;39;20054;-68
2023/03/10 09:01:31;;;;;;;8.82;2.15;;;;;;;13.00;76.64;98391.91;3607336;39;20120;-68
2023/03/10 09:03:57;;;;;;;11.60;2.67;;;;;;;12.90;75.38;98386.69;3606193;39;20047;-68
2023/03/10 09:06:23;;;;;;;8.80;2.83;;;;;;;12.83;76.05;98376.78;3605500;39;20051;-68
2023/03/10 09:08:49;;;;;;;8.85;2.35;;;;;;;12.82;75.37;98385.88;3605605;39;20057;-69
2023/03/10 09:11:30;;;;;;;8.88;2.20;;;;;;;12.74;75.38;98378.63;3598868;39;20478;-68
2023/03/10 09:13:57;;;;;;;9.45;2.30;;;;;;;12.77;75.21;98389.91;3606035;39;20338;-68
2023/03/10 09:16:23;;;;;;;10.45;2.60;;;;;;;12.61;75.45;98345.94;3604109;39;20055;-68
2023/03/10 09:18:49;;;;;;;8.80;2.15;;;;;;;12.84;75.47;98378.44;3609616;39;20058;-67
2023/03/10 09:21:18;;;;;;;7.18;2.42;;;;;;;12.92;75.65;98378.44;3609954;39;20054;-67
2023/03/10 09:23:47;;;;;;;8.98;2.35;;;;;;;12.92;74.86;98376.59;3604500;39;20050;-68
2023/03/10 09:26:14;;;;;;;8.88;1.95;;;;;;;12.87;74.30;98378.09;3607514;39;20270;-67
2023/03/10 09:28:40;;;;;;;9.70;2.67;;;;;;;12.73;73.65;98377.78;3607587;39;20399;-67
2023/03/10 09:31:14;;;;;;;7.97;2.00;;;;;;;12.64;74.14;98378.78;3598256;39;20047;-67
2023/03/10 09:33:39;;;;;;;;;;;;;;;12.57;74.26;98379.66;3606156;39;20070;-67
2023/03/10 09:36:05;;;;;;;5.10;1.55;;;;;;;12.46;74.24;98387.06;3608082;39;20274;-67
2023/03/10 09:38:31;;;;;;;6.10;1.70;;;;;;;12.32;74.51;98375.06;3609657;39;20062;-68
2023/03/10 09:41:12;;;;;;;7.95;2.35;;;;;;;12.19;76.08;98390.88;3608301;39;20074;-69
2023/03/10 09:43:51;;;;;;;6.25;1.90;;;;;;;12.00;78.26;98397.38;3599833;39;20111;-69
2023/03/10 09:46:31;;;;;;;11.30;1.90;;;;;;;11.89;80.21;98391.44;3605535;39;20096;-68
2023/03/10 09:49:11;;;;;;;6.93;2.20;;;;;;;11.56;80.38;98375.16;3611841;39;20392;-68
2023/03/10 09:51:47;;;;;;;10.20;2.33;;;;;;;11.63;81.36;98390.47;3614322;39;20093;-67
2023/03/10 09:54:18;;;;;;;8.82;2.33;;;;;;;11.51;82.62;98396.28;3609569;39;20054;-67
2023/03/10 09:56:43;;;;;;;11.20;2.45;;;;;;;11.42;83.12;98399.94;3607083;39;20664;-66
2023/03/10 09:59:36;;;;;;;9.48;2.17;;;;;;;11.23;83.98;98375.00;3609515;39;20043;-67
2023/03/10 10:02:17;;;;;;;6.80;2.28;;;;;;;11.38;84.21;98397.59;3612548;39;20115;-66
2023/03/10 10:04:45;;;;;;;10.07;2.40;;;;;;;11.46;84.46;98404.03;3609768;39;20540;-66
2023/03/10 10:07:23;;;;;;;8.80;2.28;;;;;;;11.41;84.25;98400.97;3611496;39;20289;-65
2023/03/10 10:10:04;;;;;;;8.88;2.50;;;;;;;11.29;84.47;98393.19;3609260;39;20412;-65
2023/03/10 10:12:30;;;;;;;10.23;2.25;;;;;;;11.31;84.06;98407.28;3612757;39;20051;-67
2023/03/10 10:15:12;;;;;;;10.80;2.78;;;;;;;11.27;84.06;98415.84;3607305;39;20141;-67
2023/03/10 10:18:21;;;;;;;14.82;2.67;;;;;;;11.13;85.15;98414.56;3608137;39;20055;-67
2023/03/10 10:21:02;;;;;;;11.82;2.95;;;;;;;11.04;85.06;98410.16;3610611;39;20320;-63
2023/03/10 10:23:41;;;;;;;8.75;2.53;;;;;;;11.00;86.26;98411.44;3612584;39;20059;-63
2023/03/10 10:26:18;;;;;;;12.27;2.85;;;;;;;10.95;87.04;98419.16;3610499;39;20372;-63
2023/03/10 10:28:53;;;;;;;11.98;2.60;;;;;;;10.91;87.05;98416.78;3608010;39;20053;-63
2023/03/10 10:31:26;;;;;;;11.57;2.40;;;;;;;10.88;88.23;98417.09;3609311;39;20329;-64
2023/03/10 10:34:25;;;;;;;15.52;3.17;;;;;;;10.87;88.99;98410.00;3609590;39;20085;-65
2023/03/10 10:36:54;;;;;;;11.13;2.80;;;;;;;10.96;89.80;98404.72;3610972;39;20054;-65
2023/03/10 10:39:36;;;;;;;9.25;3.17;;;;;;;10.98;89.26;98400.88;3610008;39;20043;-65
2023/03/10 10:42:26;;;;;;;10.88;3.05;;;;;;;11.04;89.33;98405.63;3611150;39;20110;-65
2023/03/10 10:45:01;;;;;;;9.60;2.85;;;;;;;11.11;89.63;98411.22;3597392;39;20100;-65
2023/03/10 10:47:33;;;;;;;9.32;3.05;;;;;;;11.14;89.92;98409.03;3608988;39;20049;-66
2023/03/10 10:50:27;;;;;;;12.65;3.25;;;;;;;11.15;90.08;98394.59;3607013;39;20055;-65
2023/03/10 10:53:14;;;;;;;;;;;;;;;11.10;89.70;98396.94;3608919;39;20059;-65
2023/03/10 10:55:44;;;;;;;8.02;2.85;;;;;;;11.11;89.01;98384.31;3608960;39;19927;-65
2023/03/10 10:58:31;;;;;;;9.55;3.17;;;;;;;10.82;88.57;98342.47;3609687;39;20051;-65
2023/03/10 11:01:02;;;;;;;8.27;2.80;;;;;;;11.10;89.61;98378.09;3602922;39;20462;-65
2023/03/10 11:03:30;;;;;;;12.50;2.83;;;;;;;11.12;89.69;98375.25;3610054;39;20051;-65
2023/03/10 11:05:56;;;;;;;7.25;2.50;;;;;;;11.10;89.22;98375.41;3608776;39;20336;-64
2023/03/10 11:08:36;;;;;;;11.57;2.88;;;;;;;10.77;89.08;98328.66;3607573;39;20043;-65
2023/03/10 11:11:23;;;;;;;5.30;2.20;;;;;;;11.09;89.91;98380.94;3609804;39;20042;-64
2023/03/10 11:14:12;;;;;;;6.55;2.13;;;;;;;11.05;89.59;98382.25;3609898;39;20050;-65
2023/03/10 11:16:58;;;;;;;6.40;2.58;;;;;;;11.06;89.83;98381.25;3609167;39;20055;-65
2023/03/10 11:20:14;;;;;;;7.63;2.47;;;;;;;11.06;90.12;98381.25;3609764;39;20051;-65
2023/03/10 11:23:16;;;;;;;5.70;2.40;;;;;;;11.02;89.38;98379.91;3610330;39;20055;-65
2023/03/10 11:26:19;;;;;;;7.40;2.28;;;;;;;11.00;89.44;98363.06;3595388;39;20066;-65
2023/03/10 11:29:25;;;;;;;4.30;1.98;;;;;;;11.02;89.84;98367.28;3605014;39;20054;-66
2023/03/10 11:32:41;;;;;;;5.70;2.22;;;;;;;10.93;90.04;98365.53;3609335;39;20059;-66
2023/03/10 11:35:44;;;;;;;5.22;2.53;;;;;;;10.99;90.09;98364.91;3606788;39;20320;-66
2023/03/10 11:38:42;;;;;;;4.70;2.80;;;;;;;10.98;90.51;98362.41;3608114;39;20043;-65
2023/03/10 11:41:22;;;;;;;6.68;2.80;;;;;;;10.99;90.05;98361.38;3607726;39;20269;-66
2023/03/10 11:44:36;;;;;;;5.68;2.72;;;;;;;10.96;90.35;98361.69;3606902;39;20063;-65
2023/03/10 11:47:24;;;;;;;5.20;2.75;;;;;;;10.99;91.47;98353.31;3599272;39;20036;-65
2023/03/10 11:50:27;;;;;;;4.30;2.88;;;;;;;11.04;91.40;98356.41;3601097;39;20051;-65